Terminal Aerodrome Forecast
Issued by NWS St Louis, MO

Home | Current Version | Previous Version | Text Only | Print | Product List | Glossary On
Versions: 1 2 3 4 5 6 7 8 9 10 11 12 13 14 15 16 17 18
000
FTUS43 KLSX 240500
TAFSTL
TAF
KSTL 240540Z 2406/2512 33005KT P6SM BKN022 OVC100
     FM240900 32008KT 6SM -RA BKN015
     FM241200 31010KT 3SM -RASN OVC012
     FM241500 30010KT 2SM -SN OVC008
     FM241800 28012G20KT P6SM -RASN OVC008
     FM242300 27010KT P6SM OVC008
     FM250600 24006KT P6SM OVC012=

USA.gov is the U.S. government's official web portal to all federal, state and local government web resources and services.